Goodwine, Illinois
Current Conditions -  °F | °C
As of 2:10 PM on Friday 31 Oct 2014 (Local Time) from KTIP Reporting Station
Overcast Overcast  
Wind Chill: 33°   Ceiling: 4100
Heat Index: 43°   Visibility: 10mi
Dew Point: 26°   Wind: 26mph
Humidity: 52%   Direction: 350°N
Pressure: 30.15"   Gusts: 37mph
Location:  40.57°N, 87.78°W
Report Text: KTIP 311910Z AUTO 35023G32KT 10SM SCT030 BKN041 OVC050 06/M03 A3015 RMK AO2 T00601031
Loading
Personal Weather Stations






























Interactive Weather Map
Tropical Storm Tracking
New forecast layout! Learn more

10-Day Weather Forecast

Advertisements
Track Severe Weather on mobile